Time;durP1;ratioP1;P1;durP2;ratioP2;P2;SDS_P1;SDS_P2;PMS_P1;PMS_P2;Temp;Humidity;BMP_temperature;BMP_pressure;BME280_temperature;BME280_humidity;BME280_pressure;Samples;Min_cycle;Max_cycle;Signal;HPM_P1;HPM_P2
2022/02/15 00:00:04;;;;;;;0.57;0.43;;;17.40;62.40;;;;;;10453962;28;20231;-70
2022/02/15 00:05:28;;;;;;;1.00;0.60;;;17.40;62.40;;;;;;10448896;28;20185;-70
2022/02/15 00:10:50;;;;;;;0.90;0.60;;;17.40;62.30;;;;;;10445371;28;20228;-70
2022/02/15 00:16:12;;;;;;;0.83;0.60;;;17.40;62.30;;;;;;10454634;28;20224;-70
2022/02/15 00:21:36;;;;;;;1.23;0.50;;;17.40;62.30;;;;;;10453396;28;20232;-70
2022/02/15 00:26:58;;;;;;;0.90;0.50;;;17.40;62.30;;;;;;10453829;28;20193;-70
2022/02/15 00:32:20;;;;;;;0.77;0.50;;;17.40;62.30;;;;;;10446080;28;20221;-70
2022/02/15 00:37:44;;;;;;;2.67;0.60;;;17.40;62.30;;;;;;10435737;28;20217;-70
2022/02/15 00:43:06;;;;;;;1.57;0.60;;;17.40;62.30;;;;;;10443417;28;20197;-70
2022/02/15 00:48:28;;;;;;;0.53;0.43;;;17.40;62.30;;;;;;10447320;28;20223;-70
2022/02/15 00:53:52;;;;;;;0.77;0.53;;;17.40;62.30;;;;;;10449037;28;20224;-70
2022/02/15 00:59:14;;;;;;;1.10;0.63;;;17.40;62.30;;;;;;10452278;28;20217;-70
2022/02/15 01:04:36;;;;;;;1.13;0.60;;;17.40;62.30;;;;;;10452002;28;20281;-70
2022/02/15 01:10:00;;;;;;;1.03;0.50;;;17.40;62.30;;;;;;10451934;28;20217;-70
2022/02/15 01:15:22;;;;;;;1.47;0.80;;;17.40;62.30;;;;;;10451220;28;20217;-70
2022/02/15 01:20:44;;;;;;;1.07;0.70;;;17.40;62.30;;;;;;10451177;28;20221;-70
2022/02/15 01:26:08;;;;;;;0.60;0.60;;;17.40;62.20;;;;;;10450840;28;20193;-70
2022/02/15 01:31:30;;;;;;;0.97;0.60;;;17.40;62.30;;;;;;10445888;28;20306;-70
2022/02/15 01:36:52;;;;;;;0.90;0.60;;;17.40;62.20;;;;;;10451457;28;20220;-70
2022/02/15 01:42:18;;;;;;;1.67;0.60;;;17.40;62.30;;;;;;10451697;28;20228;-70
2022/02/15 01:47:41;;;;;;;1.13;0.60;;;17.40;62.20;;;;;;10450551;28;20216;-70
2022/02/15 01:53:03;;;;;;;0.80;0.50;;;17.40;62.20;;;;;;10450457;28;20221;-70
2022/02/15 01:58:27;;;;;;;0.70;0.60;;;17.40;62.20;;;;;;10451552;28;20302;-70
2022/02/15 02:03:49;;;;;;;1.13;0.60;;;17.40;62.20;;;;;;10426004;28;20193;-70
2022/02/15 02:09:11;;;;;;;0.60;0.43;;;17.40;62.20;;;;;;10452374;28;20698;-70
2022/02/15 02:14:34;;;;;;;1.70;0.70;;;17.40;62.30;;;;;;10460980;28;20217;-70
2022/02/15 02:19:57;;;;;;;1.20;0.60;;;17.40;62.20;;;;;;10458273;28;20691;-70
2022/02/15 02:25:22;;;;;;;0.73;0.40;;;17.40;62.30;;;;;;10457843;28;20193;-70
2022/02/15 02:30:44;;;;;;;0.80;0.53;;;17.40;62.20;;;;;;10453032;28;20213;-70
2022/02/15 02:36:08;;;;;;;0.57;0.40;;;17.40;62.20;;;;;;10458317;28;20622;-70
2022/02/15 02:41:32;;;;;;;1.33;0.53;;;17.40;62.20;;;;;;10457113;28;20252;-70
2022/02/15 02:46:54;;;;;;;0.93;0.50;;;17.40;62.20;;;;;;10455774;28;20197;-70
2022/02/15 02:52:16;;;;;;;0.80;0.57;;;17.40;62.20;;;;;;10456140;28;20197;-70
2022/02/15 02:57:40;;;;;;;1.17;0.60;;;17.40;62.80;;;;;;10425314;28;20221;-70
2022/02/15 03:03:07;;;;;;;0.90;0.60;;;17.40;62.20;;;;;;10452568;28;20200;-70
2022/02/15 03:08:29;;;;;;;0.97;0.70;;;17.40;62.20;;;;;;10456698;28;20610;-70
2022/02/15 03:13:52;;;;;;;1.30;0.60;;;17.40;62.20;;;;;;10455415;28;20224;-70
2022/02/15 03:19:15;;;;;;;0.83;0.60;;;17.40;62.20;;;;;;10456220;28;20217;-70
2022/02/15 03:24:37;;;;;;;1.07;0.63;;;17.40;62.20;;;;;;10456126;28;20285;-70
2022/02/15 03:30:00;;;;;;;0.57;0.33;;;17.30;62.10;;;;;;10454291;28;20248;-70
2022/02/15 03:35:23;;;;;;;1.33;0.70;;;17.30;62.10;;;;;;10453109;28;20212;-70
2022/02/15 03:46:26;;;;;;;0.50;0.50;;;17.30;62.20;;;;;;10452374;28;20224;-63
2022/02/15 03:51:48;;;;;;;0.73;0.50;;;17.30;62.10;;;;;;10389284;28;20217;-63
2022/02/15 03:57:10;;;;;;;1.20;0.63;;;17.30;62.10;;;;;;10383317;28;20229;-64
2022/02/15 04:02:34;;;;;;;0.60;0.50;;;17.30;62.20;;;;;;10398811;28;20204;-63
2022/02/15 04:07:56;;;;;;;0.93;0.43;;;17.40;62.20;;;;;;10406092;28;20213;-65
2022/02/15 04:13:18;;;;;;;0.73;0.60;;;17.30;62.20;;;;;;10410477;28;20214;-63
2022/02/15 04:18:43;;;;;;;1.03;0.53;;;17.30;62.20;;;;;;10409551;28;20694;-66
2022/02/15 04:24:06;;;;;;;0.37;0.30;;;17.30;62.20;;;;;;10409856;28;20300;-63
2022/02/15 04:29:28;;;;;;;1.03;0.50;;;17.30;62.10;;;;;;10410516;28;20427;-63
2022/02/15 04:34:52;;;;;;;1.07;0.77;;;17.30;62.20;;;;;;10407339;28;20213;-64
2022/02/15 04:40:14;;;;;;;0.87;0.50;;;17.40;62.30;;;;;;10408863;28;20575;-62
2022/02/15 04:45:36;;;;;;;1.03;0.40;;;17.30;62.20;;;;;;10397238;28;20403;-63
2022/02/15 04:50:59;;;;;;;0.87;0.40;;;17.40;62.20;;;;;;10387339;28;20217;-63
2022/02/15 04:56:22;;;;;;;0.77;0.40;;;17.40;62.20;;;;;;10408301;28;20301;-64
2022/02/15 05:01:44;;;;;;;0.77;0.50;;;17.40;62.20;;;;;;10401315;28;20218;-66
2022/02/15 05:07:08;;;;;;;0.90;0.50;;;17.40;62.20;;;;;;10407214;28;20194;-66
2022/02/15 05:12:32;;;;;;;0.57;0.50;;;17.40;62.80;;;;;;10408001;28;20193;-66
2022/02/15 05:17:54;;;;;;;0.70;0.30;;;17.40;62.20;;;;;;10403807;28;20209;-67
2022/02/15 05:23:17;;;;;;;0.97;0.53;;;17.40;62.20;;;;;;10393544;28;20225;-66
2022/02/15 05:28:39;;;;;;;0.73;0.40;;;17.40;62.20;;;;;;10391251;28;20229;-66
2022/02/15 05:34:02;;;;;;;0.77;0.50;;;17.50;62.30;;;;;;10391285;28;20572;-66
2022/02/15 05:39:25;;;;;;;0.63;0.30;;;17.50;62.20;;;;;;10396759;28;20217;-64
2022/02/15 05:44:47;;;;;;;0.70;0.47;;;17.50;62.20;;;;;;10400034;28;20666;-66
2022/02/15 05:55:52;;;;;;;1.40;0.27;;;17.40;62.20;;;;;;10388864;28;20272;-65
2022/02/15 06:01:15;;;;;;;0.97;0.50;;;17.50;62.20;;;;;;10406674;28;20225;-67
2022/02/15 06:06:37;;;;;;;0.97;0.40;;;17.50;62.20;;;;;;10405984;28;20276;-65
2022/02/15 06:12:01;;;;;;;0.50;0.33;;;17.50;62.20;;;;;;10374318;28;20195;-66
2022/02/15 06:17:23;;;;;;;0.60;0.40;;;17.50;62.20;;;;;;10397485;28;20225;-67
2022/02/15 06:22:45;;;;;;;0.30;0.30;;;17.50;62.30;;;;;;10406493;28;20198;-66
2022/02/15 06:28:09;;;;;;;0.50;0.30;;;17.50;62.20;;;;;;10390872;28;20221;-67
2022/02/15 06:33:34;;;;;;;1.43;0.50;;;17.50;62.80;;;;;;10397880;28;20249;-65
2022/02/15 06:38:56;;;;;;;0.67;0.30;;;17.50;62.30;;;;;;10390044;28;20237;-66
2022/02/15 06:44:20;;;;;;;0.63;0.40;;;17.50;62.30;;;;;;10405114;28;20190;-67
2022/02/15 06:49:42;;;;;;;0.60;0.40;;;17.50;62.30;;;;;;10402579;28;20214;-65
2022/02/15 06:55:05;;;;;;;0.63;0.50;;;17.50;62.30;;;;;;10372300;28;20226;-66
2022/02/15 07:00:28;;;;;;;0.53;0.40;;;17.50;62.30;;;;;;10409268;28;20213;-65
2022/02/15 07:05:50;;;;;;;1.90;0.60;;;17.50;62.30;;;;;;10412847;28;20571;-66
2022/02/15 07:11:12;;;;;;;1.17;0.50;;;17.50;62.20;;;;;;10373827;28;20723;-67
2022/02/15 07:16:36;;;;;;;0.60;0.40;;;17.40;62.10;;;;;;10381087;28;20224;-63
2022/02/15 07:21:58;;;;;;;0.77;0.47;;;17.40;62.20;;;;;;10411644;28;20224;-66
2022/02/15 07:27:20;;;;;;;1.43;0.40;;;17.40;62.30;;;;;;10412649;28;20206;-67
2022/02/15 07:32:44;;;;;;;1.10;0.60;;;17.40;62.40;;;;;;10408947;28;20204;-63
2022/02/15 07:38:06;;;;;;;0.80;0.60;;;17.40;62.40;;;;;;10377506;28;20221;-67
2022/02/15 07:43:28;;;;;;;1.70;0.37;;;17.40;62.40;;;;;;10371387;28;20198;-67
2022/02/15 07:48:52;;;;;;;1.07;0.60;;;17.30;63.00;;;;;;10392927;28;20222;-67
2022/02/15 07:54:14;;;;;;;0.90;0.60;;;17.40;62.60;;;;;;10412005;28;20206;-66
2022/02/15 07:59:36;;;;;;;2.00;0.70;;;17.40;62.70;;;;;;10410158;28;20587;-64
2022/02/15 08:05:00;;;;;;;1.30;0.53;;;17.40;62.50;;;;;;10411116;28;20198;-65
2022/02/15 08:10:23;;;;;;;0.93;0.73;;;17.40;62.50;;;;;;10408779;28;20213;-66
2022/02/15 08:15:48;;;;;;;1.23;0.60;;;17.40;62.60;;;;;;10409913;28;20218;-66
2022/02/15 08:21:12;;;;;;;1.00;0.57;;;17.30;62.60;;;;;;10411282;28;20213;-67
2022/02/15 08:26:34;;;;;;;1.13;0.70;;;17.30;62.60;;;;;;10409231;28;20559;-65
2022/02/15 08:31:58;;;;;;;0.53;0.40;;;17.30;62.70;;;;;;10407214;28;20202;-65
2022/02/15 08:37:22;;;;;;;0.50;0.50;;;17.30;62.70;;;;;;10396292;28;20289;-65
2022/02/15 08:42:44;;;;;;;0.50;0.50;;;17.40;62.80;;;;;;10409115;28;20206;-64
2022/02/15 08:48:08;;;;;;;0.50;0.50;;;17.40;62.80;;;;;;10408853;28;20226;-63
2022/02/15 08:53:32;;;;;;;1.90;0.53;;;17.30;62.70;;;;;;10393634;28;20202;-63
2022/02/15 08:58:54;;;;;;;0.53;0.50;;;17.40;62.80;;;;;;10389888;28;20229;-65
2022/02/15 09:04:16;;;;;;;1.73;0.60;;;17.30;62.80;;;;;;10406006;28;20194;-65
2022/02/15 09:09:40;;;;;;;0.40;0.40;;;17.40;62.80;;;;;;10409078;28;20229;-64
2022/02/15 09:15:02;;;;;;;0.50;0.47;;;17.40;62.90;;;;;;10408068;28;20686;-64
2022/02/15 09:20:24;;;;;;;1.80;0.67;;;17.30;62.80;;;;;;10407948;28;20301;-64
2022/02/15 09:25:48;;;;;;;0.93;0.50;;;17.40;62.90;;;;;;10408191;28;20200;-63
2022/02/15 09:31:10;;;;;;;0.40;0.40;;;17.40;62.90;;;;;;10407322;28;20220;-65
2022/02/15 09:36:32;;;;;;;0.83;0.60;;;17.30;62.90;;;;;;10367376;28;20274;-65
2022/02/15 09:41:56;;;;;;;1.17;0.70;;;17.40;63.50;;;;;;10440300;23;20713;-63
2022/02/15 09:47:25;;;;;;;0.53;0.40;;;17.40;62.90;;;;;;10426627;28;20217;-68
2022/02/15 09:52:47;;;;;;;0.93;0.47;;;17.40;62.90;;;;;;10408086;28;20197;-66
2022/02/15 09:58:11;;;;;;;0.50;0.43;;;17.40;63.00;;;;;;10407785;28;20232;-66
2022/02/15 10:03:33;;;;;;;0.87;0.60;;;17.40;63.00;;;;;;10406148;28;20202;-67
2022/02/15 10:09:01;;;;;;;1.43;0.40;;;17.40;63.00;;;;;;10442451;28;20220;-67
2022/02/15 10:14:25;;;;;;;0.50;0.50;;;17.40;63.20;;;;;;10410485;28;20226;-68
2022/02/15 10:19:49;;;;;;;2.27;0.60;;;17.40;63.20;;;;;;10434134;28;20231;-68
2022/02/15 10:25:11;;;;;;;1.10;0.40;;;17.40;63.10;;;;;;10456384;28;20658;-65
2022/02/15 10:30:38;;;;;;;1.10;0.50;;;17.40;63.10;;;;;;10456185;28;20227;-67
2022/02/15 10:36:03;;;;;;;0.63;0.50;;;17.40;63.70;;;;;;10422240;28;20221;-67
2022/02/15 10:41:32;;;;;;;1.03;0.50;;;17.40;63.10;;;;;;10453967;28;20686;-66
2022/02/15 10:46:57;;;;;;;0.50;0.50;;;17.30;63.10;;;;;;10455709;28;20666;-67
2022/02/15 10:52:19;;;;;;;1.70;0.60;;;17.40;63.20;;;;;;10447704;28;20197;-67
2022/02/15 10:57:41;;;;;;;1.70;0.50;;;17.40;63.20;;;;;;10444582;28;20234;-67
2022/02/15 11:03:07;;;;;;;1.13;0.50;;;17.40;63.20;;;;;;10423600;28;20201;-68
2022/02/15 11:08:31;;;;;;;0.40;0.27;;;17.40;64.00;;;;;;10453969;28;20690;-66
2022/02/15 11:13:55;;;;;;;1.30;0.60;;;17.40;63.60;;;;;;10454643;28;20242;-65
2022/02/15 11:19:19;;;;;;;0.40;0.40;;;17.40;63.60;;;;;;10454246;28;20248;-68
2022/02/15 11:24:41;;;;;;;0.40;0.33;;;17.40;63.60;;;;;;10454594;28;20185;-67
2022/02/15 11:30:05;;;;;;;1.60;0.47;;;17.40;63.60;;;;;;10453405;28;20216;-67
2022/02/15 11:35:32;;;;;;;1.03;0.80;;;17.40;63.50;;;;;;10421943;28;20567;-64
2022/02/15 11:40:59;;;;;;;1.03;0.50;;;17.40;63.50;;;;;;10429360;28;20226;-67
2022/02/15 11:46:29;;;;;;;0.90;0.50;;;17.40;63.50;;;;;;10410910;28;20201;-67
2022/02/15 11:51:53;;;;;;;0.50;0.50;;;17.40;63.50;;;;;;10412301;28;20687;-67
2022/02/15 11:57:16;;;;;;;0.73;0.40;;;17.40;63.60;;;;;;10442286;28;20224;-66
2022/02/15 12:02:38;;;;;;;0.77;0.50;;;17.40;63.60;;;;;;10452876;28;20658;-67
2022/02/15 12:08:01;;;;;;;0.97;0.60;;;17.40;63.60;;;;;;10453801;28;20217;-67
2022/02/15 12:13:23;;;;;;;1.43;0.60;;;17.40;63.60;;;;;;10453411;28;20201;-67
2022/02/15 12:18:47;;;;;;;0.63;0.50;;;17.40;63.60;;;;;;10453473;28;20232;-66
2022/02/15 12:24:10;;;;;;;0.80;0.50;;;17.40;63.50;;;;;;10423598;28;20196;-67
2022/02/15 12:29:32;;;;;;;2.63;1.20;;;17.40;63.50;;;;;;10432114;28;20225;-67
2022/02/15 12:34:56;;;;;;;2.73;1.40;;;17.40;63.50;;;;;;10412141;28;20580;-65
2022/02/15 12:40:20;;;;;;;2.20;1.10;;;17.40;63.50;;;;;;10451769;28;20225;-66
2022/02/15 12:45:45;;;;;;;1.33;0.93;;;17.40;63.60;;;;;;10450587;28;20659;-65
2022/02/15 12:51:08;;;;;;;2.80;1.23;;;17.40;63.50;;;;;;10450222;28;20220;-70
2022/02/15 12:56:34;;;;;;;2.40;1.30;;;17.50;63.60;;;;;;10446710;28;20863;-64
2022/02/15 13:02:00;;;;;;;1.47;0.90;;;17.50;63.60;;;;;;10452253;28;20674;-68
2022/02/15 13:07:23;;;;;;;3.17;1.00;;;17.50;63.60;;;;;;10450223;28;20586;-66
2022/02/15 13:12:48;;;;;;;2.00;1.20;;;17.50;63.60;;;;;;10450097;28;20204;-65
2022/02/15 13:18:10;;;;;;;1.77;1.10;;;17.50;63.60;;;;;;10450757;28;20213;-65
2022/02/15 13:23:34;;;;;;;4.13;1.30;;;17.50;63.60;;;;;;10446876;28;20193;-65
2022/02/15 13:28:58;;;;;;;4.33;1.57;;;17.50;63.30;;;;;;10448839;28;20205;-66
2022/02/15 13:34:26;;;;;;;5.67;1.57;;;17.40;63.00;;;;;;10434110;28;20202;-66
2022/02/15 13:39:48;;;;;;;2.50;1.53;;;17.40;63.10;;;;;;10428756;28;20698;-66
2022/02/15 13:45:12;;;;;;;2.83;1.03;;;17.40;63.20;;;;;;10444782;28;20211;-66
2022/02/15 13:50:34;;;;;;;2.53;1.53;;;17.40;63.30;;;;;;10448848;28;20213;-66
2022/02/15 13:55:56;;;;;;;1.30;1.00;;;17.40;63.40;;;;;;10444679;28;20213;-66
2022/02/15 14:01:20;;;;;;;2.33;1.13;;;17.40;63.50;;;;;;10415354;28;20217;-65
2022/02/15 14:06:42;;;;;;;3.13;1.00;;;17.40;63.70;;;;;;10415823;28;20198;-66
2022/02/15 14:12:05;;;;;;;1.53;0.80;;;17.40;63.80;;;;;;10424632;28;20570;-67
2022/02/15 14:17:41;;;;;;;1.70;1.20;;;17.40;64.00;;;;;;10456185;28;20224;-66
2022/02/15 14:23:03;;;;;;;1.17;0.70;;;17.50;64.00;;;;;;10443851;28;20239;-66
2022/02/15 14:28:26;;;;;;;2.13;1.20;;;17.50;64.00;;;;;;10442987;28;20224;-67
2022/02/15 14:33:49;;;;;;;1.73;1.20;;;17.50;64.10;;;;;;10455770;28;20205;-66
2022/02/15 14:39:11;;;;;;;1.80;1.20;;;17.50;63.90;;;;;;10456151;28;20225;-66
2022/02/15 14:44:33;;;;;;;3.30;1.40;;;17.50;63.80;;;;;;10456930;28;20193;-66
2022/02/15 14:49:57;;;;;;;2.00;1.13;;;17.40;63.70;;;;;;10450897;28;20221;-67
2022/02/15 14:55:24;;;;;;;1.97;1.20;;;17.50;63.80;;;;;;10452707;28;20221;-66
2022/02/15 15:00:47;;;;;;;2.07;1.20;;;17.50;63.80;;;;;;10450949;28;20213;-66
2022/02/15 15:06:10;;;;;;;2.03;1.20;;;17.50;63.80;;;;;;10455586;28;20193;-66
2022/02/15 15:11:32;;;;;;;1.63;1.00;;;17.50;63.80;;;;;;10454833;28;20672;-66
2022/02/15 15:16:54;;;;;;;1.20;1.00;;;17.50;63.80;;;;;;10454561;28;20212;-66
2022/02/15 15:22:20;;;;;;;1.97;1.10;;;17.50;63.70;;;;;;10454893;28;20201;-68
2022/02/15 15:27:46;;;;;;;1.97;1.27;;;17.50;63.60;;;;;;10434838;28;20682;-66
2022/02/15 15:33:09;;;;;;;2.70;1.30;;;17.50;63.60;;;;;;10454876;28;20201;-66
2022/02/15 15:38:33;;;;;;;3.30;2.10;;;17.60;63.60;;;;;;10414980;28;20217;-66
2022/02/15 15:43:55;;;;;;;2.90;2.10;;;17.50;60.10;;;;;;10432548;23;20698;-66
2022/02/15 15:49:17;;;;;;;4.37;2.43;;;17.50;59.30;;;;;;10423719;28;20594;-66
2022/02/15 15:54:41;;;;;;;3.17;2.20;;;17.50;60.10;;;;;;10430802;28;20193;-65
2022/02/15 16:00:04;;;;;;;3.73;2.10;;;17.50;60.50;;;;;;10431459;28;20221;-65
2022/02/15 16:05:26;;;;;;;2.57;2.10;;;17.50;59.70;;;;;;10453324;28;20659;-66
2022/02/15 16:10:50;;;;;;;2.63;1.77;;;17.50;59.70;;;;;;10453254;28;20627;-66
2022/02/15 16:16:12;;;;;;;2.43;2.00;;;17.40;59.70;;;;;;10452440;28;20675;-65
2022/02/15 16:21:35;;;;;;;1.90;1.60;;;17.40;59.30;;;;;;10450787;28;20220;-65
2022/02/15 16:26:58;;;;;;;4.10;2.27;;;17.50;58.70;;;;;;10452044;28;20566;-65
2022/02/15 16:32:21;;;;;;;4.60;2.20;;;17.50;58.40;;;;;;10447638;28;20201;-64
2022/02/15 16:37:43;;;;;;;3.40;2.93;;;17.50;58.40;;;;;;10451497;28;20221;-64
2022/02/15 16:43:08;;;;;;;4.87;2.70;;;17.40;56.60;;;;;;10446478;28;20200;-64
2022/02/15 16:48:32;;;;;;;2.60;2.40;;;17.40;57.80;;;;;;10446030;28;20228;-64
2022/02/15 16:53:54;;;;;;;4.27;2.60;;;17.40;57.50;;;;;;10426363;28;20205;-65
2022/02/15 16:59:19;;;;;;;3.63;3.00;;;17.40;57.80;;;;;;10434387;28;20805;-64
2022/02/15 17:04:41;;;;;;;2.20;1.87;;;17.90;55.90;;;;;;10450276;28;20204;-65
2022/02/15 17:10:04;;;;;;;3.37;2.40;;;17.60;56.10;;;;;;10450445;28;20224;-65
2022/02/15 17:15:28;;;;;;;6.00;2.23;;;17.50;54.90;;;;;;10443643;28;20243;-65
2022/02/15 17:20:50;;;;;;;3.83;2.10;;;17.40;54.60;;;;;;10404725;28;20871;-64
2022/02/15 17:26:13;;;;;;;3.87;2.47;;;17.40;54.90;;;;;;10406258;28;20772;-64
2022/02/15 17:31:38;;;;;;;4.53;2.60;;;17.40;52.50;;;;;;10401905;28;20221;-65
2022/02/15 17:37:01;;;;;;;3.87;2.70;;;17.30;51.10;;;;;;10425495;28;20837;-65
2022/02/15 17:42:23;;;;;;;2.43;2.23;;;17.30;51.00;;;;;;10447075;28;20205;-66
2022/02/15 17:47:46;;;;;;;3.50;2.80;;;17.20;51.30;;;;;;10449234;28;20213;-65
2022/02/15 17:53:09;;;;;;;4.50;3.07;;;17.20;49.70;;;;;;10429042;28;20212;-65
2022/02/15 17:58:31;;;;;;;5.10;3.50;;;17.10;49.00;;;;;;10423204;28;20229;-66
2022/02/15 18:03:55;;;;;;;4.57;3.20;;;17.10;48.90;;;;;;10428933;28;20207;-66
2022/02/15 18:09:18;;;;;;;4.47;3.27;;;17.00;48.80;;;;;;10448013;28;20213;-66
2022/02/15 18:14:40;;;;;;;5.20;2.80;;;16.90;48.70;;;;;;10447651;28;20331;-66
2022/02/15 18:20:05;;;;;;;3.57;1.90;;;16.90;49.50;;;;;;10448448;28;20213;-66
2022/02/15 18:25:27;;;;;;;3.03;1.80;;;17.00;51.70;;;;;;10445854;28;20476;-65
2022/02/15 18:30:49;;;;;;;2.87;1.83;;;17.10;53.90;;;;;;10448926;28;20251;-66
2022/02/15 18:36:12;;;;;;;1.90;1.40;;;17.10;54.80;;;;;;10447742;28;20205;-66
2022/02/15 18:41:34;;;;;;;1.93;1.30;;;17.20;55.60;;;;;;10452621;28;20221;-66
2022/02/15 18:46:57;;;;;;;1.60;1.27;;;17.20;56.30;;;;;;10448650;28;20211;-66
2022/02/15 18:52:21;;;;;;;4.30;1.20;;;17.20;57.30;;;;;;10453301;28;20201;-66
2022/02/15 18:57:43;;;;;;;2.60;1.20;;;17.30;57.20;;;;;;10450677;28;20231;-66
2022/02/15 19:03:05;;;;;;;2.23;1.10;;;17.30;57.60;;;;;;10448896;28;20201;-67
2022/02/15 19:08:29;;;;;;;1.70;1.10;;;17.30;57.90;;;;;;10453114;28;20213;-66
2022/02/15 19:13:51;;;;;;;3.77;1.30;;;17.30;58.10;;;;;;10450733;28;20207;-67
2022/02/15 19:19:16;;;;;;;2.37;1.10;;;17.30;58.20;;;;;;10451686;28;20221;-66
2022/02/15 19:24:40;;;;;;;1.80;1.40;;;17.30;58.40;;;;;;10452540;28;20531;-63
2022/02/15 19:30:02;;;;;;;1.87;1.10;;;17.30;58.40;;;;;;10447971;28;20208;-66
2022/02/15 19:35:25;;;;;;;2.77;1.10;;;17.30;58.50;;;;;;10452758;28;20189;-67
2022/02/15 19:40:49;;;;;;;4.03;1.20;;;17.30;58.50;;;;;;10452168;28;20213;-67
2022/02/15 19:46:11;;;;;;;1.73;1.00;;;17.40;58.50;;;;;;10452322;28;20193;-66
2022/02/15 19:51:33;;;;;;;1.77;1.10;;;17.40;58.50;;;;;;10448114;28;20270;-66
2022/02/15 19:56:57;;;;;;;1.93;0.90;;;17.40;58.70;;;;;;10446048;28;20217;-65
2022/02/15 20:02:19;;;;;;;1.70;1.07;;;17.40;58.80;;;;;;10449093;28;20544;-64
2022/02/15 20:07:41;;;;;;;1.70;0.80;;;17.40;58.80;;;;;;10449342;28;20717;-66
2022/02/15 20:13:05;;;;;;;1.63;0.90;;;17.40;58.90;;;;;;10442679;28;20201;-66
2022/02/15 20:18:27;;;;;;;1.73;1.10;;;17.40;59.00;;;;;;10445277;28;20248;-66
2022/02/15 20:23:49;;;;;;;1.63;1.13;;;17.40;59.00;;;;;;10444868;28;20197;-66
2022/02/15 20:29:13;;;;;;;1.27;0.80;;;17.40;59.10;;;;;;10447604;28;20213;-66
2022/02/15 20:34:35;;;;;;;0.97;0.70;;;17.40;59.20;;;;;;10449392;28;20274;-64
2022/02/15 20:39:57;;;;;;;2.50;1.10;;;17.40;59.30;;;;;;10437645;28;20594;-63
2022/02/15 20:45:21;;;;;;;1.90;0.90;;;17.40;59.40;;;;;;10446772;28;20656;-66
2022/02/15 20:50:44;;;;;;;0.57;0.53;;;17.40;59.40;;;;;;10446737;28;20205;-66
2022/02/15 20:56:07;;;;;;;2.43;0.90;;;17.40;59.40;;;;;;10448400;28;20232;-66
2022/02/15 21:01:31;;;;;;;1.20;0.80;;;17.40;59.50;;;;;;10449562;28;20209;-66
2022/02/15 21:06:53;;;;;;;1.17;0.70;;;17.40;59.60;;;;;;10450674;28;20682;-63
2022/02/15 21:12:15;;;;;;;1.37;0.73;;;17.40;59.60;;;;;;10419527;28;20206;-66
2022/02/15 21:17:38;;;;;;;0.73;0.60;;;17.40;59.70;;;;;;10409594;28;20217;-67
2022/02/15 21:23:01;;;;;;;1.67;0.83;;;17.40;59.70;;;;;;10409047;28;20280;-66
2022/02/15 21:28:24;;;;;;;0.70;0.70;;;17.40;59.70;;;;;;10412004;28;20683;-66
2022/02/15 21:33:49;;;;;;;0.70;0.70;;;17.40;59.80;;;;;;10409123;28;20227;-67
2022/02/15 21:44:20;;;;;;;0.93;0.83;;;17.40;59.80;;;;;;10401630;28;20237;-66
2022/02/15 21:49:44;;;;;;;1.03;0.73;;;17.40;59.90;;;;;;10406651;28;20582;-65
2022/02/15 21:55:07;;;;;;;1.17;1.00;;;17.40;60.00;;;;;;10406797;28;20198;-65
2022/02/15 22:00:31;;;;;;;2.40;0.73;;;17.40;60.00;;;;;;10407835;28;20225;-66
2022/02/15 22:05:57;;;;;;;0.60;0.60;;;17.30;60.00;;;;;;10407001;28;20202;-65
2022/02/15 22:11:19;;;;;;;2.47;0.70;;;17.40;60.10;;;;;;10407828;28;20221;-65
2022/02/15 22:16:41;;;;;;;1.20;0.60;;;17.40;60.20;;;;;;10410783;28;20236;-65
2022/02/15 22:22:06;;;;;;;1.73;0.73;;;17.30;60.10;;;;;;10415018;28;20210;-65
2022/02/15 22:27:28;;;;;;;0.80;0.70;;;17.30;60.20;;;;;;10416414;28;20268;-65
2022/02/15 22:32:51;;;;;;;1.30;0.70;;;17.30;60.20;;;;;;10414458;28;20201;-65
2022/02/15 22:38:16;;;;;;;1.80;0.60;;;17.30;60.20;;;;;;10414655;28;20233;-65
2022/02/15 22:43:38;;;;;;;1.63;0.70;;;17.30;60.30;;;;;;10414082;28;20217;-65
2022/02/15 22:54:41;;;;;;;1.53;0.70;;;17.30;60.40;;;;;;10415587;28;20194;-65
2022/02/15 23:00:10;;;;;;;0.93;0.60;;;17.30;61.00;;;;;;10415346;28;20236;-66
2022/02/15 23:22:32;;;;;;;3.03;0.60;;;17.30;60.50;;;;;;10419606;28;20194;-66
2022/02/15 23:27:56;;;;;;;1.07;0.60;;;17.30;60.60;;;;;;10413983;28;20210;-66
2022/02/15 23:33:18;;;;;;;1.63;0.80;;;17.30;60.50;;;;;;10412947;28;20202;-66
2022/02/15 23:38:40;;;;;;;0.87;0.57;;;17.30;60.60;;;;;;10412948;28;20228;-65
2022/02/15 23:44:04;;;;;;;0.97;0.73;;;17.30;60.60;;;;;;10413248;28;20201;-65
2022/02/15 23:49:27;;;;;;;1.00;0.60;;;17.30;60.70;;;;;;10413592;28;20213;-66
2022/02/15 23:54:49;;;;;;;1.27;0.60;;;17.30;60.70;;;;;;10411908;28;20567;-65
